Stella Polaris — PEBD — position and weather

sailwx.info

Track history (hours):
 
Tides and Currents Weather Stations Pressure Air Temp Water Temp Dewpoint Dewpoint Depression Visibility Wind Speed Wind Dir Waves Ship Positions

Stella Polaris

Last reported at 2015-Aug-25 20:23 UTC. Time now 2015-Aug-30 16:02 UTC.
Position N 51°25' W 056°40'.

Length 117 m; draft 5.4 m.

Type: Tanker. MMSI: 245911000.

Date/timePositionNaut miles runAvg speedWind from/ knotsBaromVisibWave heightAir tempDewpointWater temp
2015-Aug-25 20:23N 51°25' W 056°40'1113.3
2015-Aug-25 19:33N 51°19' W 056°54'1413.9
2015-Aug-25 18:33N 51°11' W 057°12'1414.3
2015-Aug-25 17:34N 51°03' W 057°31'1514.6
2015-Aug-25 16:33N 50°52' W 057°47'  
2015-Aug-22 18:08N 46°34' W 072°06'914.6
2015-Aug-22 17:33N 46°28' W 072°15'1414.2
2015-Aug-22 16:33N 46°20' W 072°32'1313.0
2015-Aug-22 15:33N 46°13' W 072°48'5310.2
2015-Aug-22 10:20N 45°29' W 073°31'5 2.8
2015-Aug-22 08:24N 45°24' W 073°36'6 6.8
2015-Aug-22 07:32N 45°24' W 073°44'9 9.6
2015-Aug-22 06:33N 45°19' W 073°55'1 1.3
2015-Aug-22 05:33N 45°18' W 073°56'9 7.6
2015-Aug-22 04:23N 45°14' W 074°07'22811.0
2015-Aug-21 07:32N 43°24' W 078°47'1414.7
2015-Aug-21 06:33N 43°22' W 079°07'1514.7
2015-Aug-21 05:33N 43°20' W 079°27'4 0.1
2015-Aug-19 14:10N 43°21' W 079°32'813.7
2015-Aug-19 13:33N 43°22' W 079°20'1413.7
2015-Aug-19 12:33N 43°25' W 079°02'24510.6
2015-Aug-18 13:33N 45°16' W 073°57'3 3.3
2015-Aug-18 12:34N 45°19' W 073°55'1 0.6
2015-Aug-18 11:32N 45°19' W 073°55'4 3.8
2015-Aug-18 10:30N 45°22' W 073°50'5 5.6
2015-Aug-18 09:33N 45°24' W 073°44'7 6.2
2015-Aug-18 08:30N 45°24' W 073°35'3 2.9
2015-Aug-18 07:27N 45°25' W 073°30'53 4.1
2015-Aug-17 18:27N 46°12' W 072°53'1011.8
2015-Aug-17 17:34N 46°16' W 072°39'1010.4
2015-Aug-17 16:34N 46°23' W 072°28'1111.3
2015-Aug-17 15:33N 46°29' W 072°14'  
Track history (hours):
 
Tides and Currents Weather Stations Pressure Air Temp Water Temp Dewpoint Dewpoint Depression Visibility Wind Speed Wind Dir Waves Ship Positions

Stella Polaris

Last reported at 2015-Aug-25 20:23 UTC. Time now 2015-Aug-30 16:02 UTC.
Position N 51°25' W 056°40'.

Length 117 m; draft 5.4 m.

Type: Tanker. MMSI: 245911000.

Date/timePositionNaut miles runAvg speedWind from/ knotsBaromVisibWave heightAir tempDewpointWater temp
2015-Aug-25 20:23N 51°25' W 056°40'1113.3
2015-Aug-25 19:33N 51°19' W 056°54'1413.9
2015-Aug-25 18:33N 51°11' W 057°12'1414.3
2015-Aug-25 17:34N 51°03' W 057°31'1514.6
2015-Aug-25 16:33N 50°52' W 057°47'  
2015-Aug-22 18:08N 46°34' W 072°06'914.6
2015-Aug-22 17:33N 46°28' W 072°15'1414.2
2015-Aug-22 16:33N 46°20' W 072°32'1313.0
2015-Aug-22 15:33N 46°13' W 072°48'5310.2
2015-Aug-22 10:20N 45°29' W 073°31'5 2.8
2015-Aug-22 08:24N 45°24' W 073°36'6 6.8
2015-Aug-22 07:32N 45°24' W 073°44'9 9.6
2015-Aug-22 06:33N 45°19' W 073°55'1 1.3
2015-Aug-22 05:33N 45°18' W 073°56'9 7.6
2015-Aug-22 04:23N 45°14' W 074°07'22811.0
2015-Aug-21 07:32N 43°24' W 078°47'1414.7
2015-Aug-21 06:33N 43°22' W 079°07'1514.7
2015-Aug-21 05:33N 43°20' W 079°27'4 0.1
2015-Aug-19 14:10N 43°21' W 079°32'813.7
2015-Aug-19 13:33N 43°22' W 079°20'1413.7
2015-Aug-19 12:33N 43°25' W 079°02'24510.6
2015-Aug-18 13:33N 45°16' W 073°57'3 3.3
2015-Aug-18 12:34N 45°19' W 073°55'1 0.6
2015-Aug-18 11:32N 45°19' W 073°55'4 3.8
2015-Aug-18 10:30N 45°22' W 073°50'5 5.6
2015-Aug-18 09:33N 45°24' W 073°44'7 6.2
2015-Aug-18 08:30N 45°24' W 073°35'3 2.9
2015-Aug-18 07:27N 45°25' W 073°30'53 4.1
2015-Aug-17 18:27N 46°12' W 072°53'1011.8
2015-Aug-17 17:34N 46°16' W 072°39'1010.4
2015-Aug-17 16:34N 46°23' W 072°28'1111.3
2015-Aug-17 15:33N 46°29' W 072°14'  

Dump ship's entire track history